Latest Coastal Weather Observations for Coolangatta (QLD)

IDN60701

Issued at 5:41 pm EST Sunday 29 May 2016 (issued every 10 minutes, with the page automatically refreshed every 10 minutes)

About coastal observations | Map of coastal stations | Coastal observations for NSW | Marine services | Other Formats
Station Details ID: 040717 Name: COOLANGATTA Lat: -28.17 Lon: 153.51 Height: 4.0 m
Data from the previous 72 hours. | See also: Recent months at Coolangatta (QLD)
Date/Time
EST
Temp

°C
Wind Pressure Rain
since 9am
mm
Weather Cloud Vis
km
Sea
Height
m
Swell
Dir
 
Speed
knots
Gust
knots
hPa Trend Height
m
Period
s
Dir
29/05:30pm 13.5 WSW 5 5 1018.1 - 0.0 - - 10 - - - -
29/05:00pm 14.2 NNE 2 4 1018.0 - 0.0 - - 10 - - - -
29/04:30pm 17.9 NNE 5 7 1017.6 - 0.0 - - 10 - - - -
29/04:00pm 18.5 ENE 6 8 1017.2 - 0.0 - - 10 - - - -
29/03:30pm 19.0 ENE 6 9 1016.9 - 0.0 - - 10 - - - -
29/03:00pm 19.2 NE 7 10 1016.7 - 0.0 - - 10 - - - -
29/02:30pm 19.4 ENE 8 11 1016.5 - 0.0 - - 10 - - - -
29/02:00pm 19.5 ENE 7 10 1016.4 - 0.0 - - 10 - - - -
29/01:30pm 19.5 ENE 9 11 1016.3 - 0.0 - - 10 - - - -
29/01:00pm 19.3 ENE 8 11 1016.5 - 0.0 - - 10 - - - -
29/12:30pm 19.2 NE 9 13 1016.9 - 0.0 - - 10 - - - -
29/12:00pm 20.2 E 5 9 1016.8 - 0.0 - - 10 - - - -
29/11:30am 19.8 S 5 8 1017.3 - 0.0 - - 10 - - - -
29/11:00am 19.3 SE 5 8 1017.3 - 0.0 - - 10 - - - -
29/10:30am 18.8 SSW 5 7 1017.6 - 0.0 - - 10 - - - -
29/10:00am 18.1 S 7 10 1018.0 - 0.0 - - 10 - - - -
29/09:30am 17.5 SSW 5 7 1018.0 - 0.0 - - 10 - - - -
29/09:00am 16.2 SSW 4 6 1018.1 - 0.0 - - 10 - - - -
29/08:30am 15.4 SSW 6 9 1017.7 - 0.0 - - 10 - - - -
29/08:00am 14.0 SW 4 6 1017.5 - 0.0 - - 10 - - - -
29/07:30am 10.8 SW 4 5 1017.1 - 0.0 - - 10 - - - -
29/07:00am 7.9 SW 3 5 1016.7 - 0.0 - - 10 - - - -
29/06:30am 7.8 S 5 7 1016.5 - 0.0 - - 10 - - - -
29/06:00am 7.7 WSW 8 10 1016.0 - 0.0 - - 10 - - - -
29/05:30am 8.3 SW 7 8 1015.9 - 0.0 - - 10 - - - -
29/05:00am 8.2 SW 5 6 1015.6 - 0.0 - - 10 - - - -
29/04:30am 8.1 SW 5 8 1015.3 - 0.0 - - 10 - - - -
29/04:00am 7.3 SW 1 3 1015.4 - 0.0 - - 10 - - - -
29/03:30am 7.7 S 4 5 1015.2 - 0.0 - - 10 - - - -
29/03:00am 8.1 ESE 1 4 1014.8 - 0.0 - - 10 - - - -
29/02:30am 8.8 SSW 4 6 1014.6 - 0.0 - - 10 - - - -
29/02:00am 7.5 NNW 4 6 1014.8 - 0.0 - - 10 - - - -
29/01:30am 8.9 WSW 4 7 1014.7 - 0.0 - - 10 - - - -
29/01:00am 9.3 S 3 6 1014.6 - 0.0 - - 10 - - - -
29/12:30am 10.0 SW 4 7 1014.5 - 0.0 - - 10 - - - -
29/12:00am 10.2 SE 4 5 1014.5 - 0.0 - - 10 - - - -
 
Date/Time
EST
Temp

°C
Wind Pressure Rain
since 9am
mm
Weather Cloud Vis
km
Sea
Height
m
Swell
Dir
 
Speed
knots
Gust
knots
hPa Trend Height
m
Period
s
Dir
28/11:30pm 12.8 SW 4 5 1014.6 - 0.0 - - 10 - - - -
28/11:00pm 12.6 W 1 5 1014.3 - 0.0 - - 10 - - - -
28/10:30pm 15.1 WNW 7 10 1014.0 - 0.0 - - 10 - - - -
28/10:00pm 15.5 WNW 4 8 1014.4 - 0.0 - - 10 - - - -
28/09:30pm 15.8 WNW 9 14 1013.5 - 0.0 - - 10 - - - -
28/09:00pm 16.6 NW 4 8 1013.8 - 0.0 - - 10 - - - -
28/08:30pm 16.8 WNW 8 12 1013.5 - 0.0 - - 10 - - - -
28/08:00pm 16.9 WNW 7 10 1013.4 - 0.0 - - 10 - - - -
28/07:30pm 16.9 W 8 10 1013.1 - 0.0 - - 10 - - - -
28/07:00pm 17.9 W 9 16 1012.7 - 0.0 - - 10 - - - -
28/06:30pm 17.4 WNW 6 11 1012.4 - 0.0 - - 10 - - - -
28/06:00pm 18.0 W 6 11 1011.7 - 0.0 - - 10 - - - -
28/05:30pm 18.2 WSW 5 9 1011.0 - 0.0 - - 10 - - - -
28/05:00pm 19.4 WNW 7 13 1010.4 - 0.0 - - 10 - - - -
28/04:30pm 20.6 WNW 7 10 1009.8 - 0.0 - - 10 - - - -
28/04:00pm 21.6 WNW 10 16 1009.4 - 0.0 - - 10 - - - -
28/03:30pm 22.1 WNW 10 17 1009.0 - 0.0 - - 10 - - - -
28/03:00pm 22.5 WNW 11 19 1008.8 - 0.0 - - 10 - - - -
28/02:30pm 23.0 WNW 12 18 1008.9 - 0.0 - - 10 - - - -
28/02:00pm 23.1 WNW 10 18 1008.8 - 0.0 - - 10 - - - -
28/01:30pm 22.2 WNW 11 16 1008.9 - 0.0 - - 10 - - - -
28/01:00pm 22.2 W 11 19 1009.2 - 0.0 - - 10 - - - -
28/12:30pm 21.5 W 10 17 1009.5 - 0.0 - - 10 - - - -
28/12:00pm 21.4 W 7 11 1009.9 - 0.0 - - 10 - - - -
28/11:30am 21.0 NNE 7 13 1010.3 - 0.0 - - 10 - - - -
28/11:00am 20.8 E 1 8 1010.9 - 0.0 - - 10 - - - -
28/10:30am 20.4 NNW 5 7 1011.6 - 0.0 - - 10 - - - -
28/10:00am 19.9 WNW 7 10 1011.9 - 0.0 - - 10 - - - -
28/09:30am 19.5 W 7 9 1012.1 - 0.0 - - 10 - - - -
28/09:00am 17.8 W 5 8 1012.3 - 0.0 - - 10 - - - -
28/08:30am 14.9 WSW 6 8 1012.2 - 0.0 - - 10 - - - -
28/08:00am 12.9 W 4 6 1012.2 - 0.0 - - 10 - - - -
28/07:30am 10.6 CALM 0 1 1011.9 - 0.0 - - 10 - - - -
28/07:00am 8.3 SW 1 5 1011.7 - 0.0 - - 10 - - - -
28/06:30am 8.6 SW 3 5 1011.5 - 0.0 - - 10 - - - -
28/06:00am 9.1 SSW 4 6 1011.3 - 0.0 - - 10 - - - -
28/05:30am 8.3 WSW 4 5 1011.0 - 0.0 - - 10 - - - -
28/05:00am 9.6 SW 4 6 1011.1 - 0.0 - - 10 - - - -
28/04:30am 9.0 W 4 5 1010.8 - 0.0 - - 10 - - - -
28/04:00am 9.0 WSW 3 5 1010.9 - 0.0 - - 10 - - - -
28/03:30am 11.5 WNW 3 5 1010.4 - 0.0 - - 10 - - - -
28/03:00am 12.7 SSE 7 8 1010.3 - 0.0 - Mostly cloudy 10 - - - -
28/02:30am 14.2 S 8 10 1010.2 - 0.0 - - 10 - - - -
28/02:00am 10.9 SSW 6 8 1010.5 - 0.0 - - 10 - - - -
28/01:30am 9.9 SE 4 5 1010.3 - 0.0 - - 10 - - - -
28/01:00am 10.9 SSE 5 8 1009.9 - 0.0 - - 10 - - - -
28/12:30am 11.3 W 5 6 1010.0 - 0.0 - - 10 - - - -
28/12:00am 10.4 WSW 4 5 1009.6 - 0.0 - Partly cloudy 10 - - - -
 
Date/Time
EST
Temp

°C
Wind Pressure Rain
since 9am
mm
Weather Cloud Vis
km
Sea
Height
m
Swell
Dir
 
Speed
knots
Gust
knots
hPa Trend Height
m
Period
s
Dir
27/11:30pm 11.7 WSW 3 4 1009.8 - 0.0 - - 10 - - - -
27/11:00pm 12.1 SW 3 5 1009.8 - 0.0 - - 10 - - - -
27/10:30pm 13.1 SW 4 6 1009.4 - 0.0 - - 10 - - - -
27/10:00pm 16.7 WSW 4 8 1009.2 - 0.0 - - 10 - - - -
27/09:30pm 17.8 WNW 7 11 1009.2 - 0.0 - - 10 - - - -
27/09:00pm 18.8 WNW 8 11 1008.8 - 0.0 - Cloudy 10 - - - -
27/08:30pm 18.8 WNW 9 12 1008.6 - 0.0 - - 10 - - - -
27/08:00pm 18.6 WNW 9 11 1008.4 - 0.0 - - 10 - - - -
27/07:30pm 19.2 WNW 10 17 1008.5 - 0.0 - - 10 - - - -
27/07:00pm 19.2 WNW 10 16 1007.9 - 0.0 - - 10 - - - -
27/06:30pm 20.4 NW 8 13 1007.2 - 0.0 - - 10 - - - -
27/06:00pm 19.7 SE 1 3 1007.3 - 0.0 - - 10 - - - -
27/05:30pm 22.0 NE 3 8 1006.8 - 0.0 - - 10 - - - -
27/05:00pm 20.9 NNE 1 5 1006.5 - 0.0 - - 10 - - - -
27/04:30pm 23.0 WSW 6 16 1005.6 - 0.0 - - 10 - - - -
27/04:00pm 23.7 W 9 15 1005.2 - 0.0 - - 10 - - - -
27/03:30pm 24.2 W 13 19 1004.8 - 0.0 - - 10 - - - -
27/03:00pm 24.7 W 11 16 1004.7 - 0.0 - - 10 - - - -
27/02:30pm 25.0 W 12 19 1004.4 - 0.0 - - 10 - - - -
27/02:07pm 24.9 W 15 27 1004.4 - 0.0 - - 10 - - - -
27/02:00pm 25.0 WNW 14 26 1004.5 - 0.0 - - 10 - - - -
27/01:49pm 24.8 W 15 25 1004.5 - 0.0 - - 10 - - - -
27/01:30pm 25.1 W 13 19 1004.7 - 0.0 - - 10 - - - -
27/01:00pm 24.6 WNW 9 13 1005.1 - 0.0 - Partly cloudy 10 - - - -
27/12:30pm 24.7 WNW 14 22 1005.5 - 0.0 - Partly cloudy 10 - - - -
27/12:00pm 24.4 WNW 12 17 1005.6 - 0.0 - - 10 - - - -
27/11:30am 23.9 WNW 13 19 1005.8 - 0.0 - - 10 - - - -
27/11:00am 23.4 WNW 11 15 1006.6 - 0.0 - - 10 - - - -
27/10:30am 23.2 WNW 10 14 1007.1 - 0.0 - - 10 - - - -
27/10:00am 22.5 WNW 9 13 1007.4 - 0.0 - Partly cloudy 10 - - - -
27/09:30am 21.5 NW 12 18 1007.8 - 0.0 - Cloudy 10 - - - -
27/09:00am 21.1 WNW 11 16 1007.6 - 0.6 - Mostly cloudy 10 - - - -
27/08:30am 20.6 WNW 11 14 1007.3 - 0.6 - Partly cloudy 10 - - - -
27/08:00am 20.4 NW 10 14 1006.9 - 0.6 - Partly cloudy 10 - - - -
27/07:30am 20.0 NW 9 13 1006.5 - 0.6 - Partly cloudy 10 - - - -
27/07:00am 19.7 NW 9 12 1006.7 - 0.6 - - 10 - - - -
27/06:30am 19.3 NW 7 10 1006.1 - 0.6 - Partly cloudy 10 - - - -
27/06:00am 19.1 NW 6 9 1006.0 - 0.6 - Cloudy 10 - - - -
27/05:30am 19.1 WNW 7 10 1006.0 - 0.6 - Partly cloudy 10 - - - -
27/05:00am 19.5 NW 9 12 1005.1 - 0.6 - Partly cloudy 10 - - - -
27/04:30am 19.6 WNW 10 13 1004.7 - 0.6 - Partly cloudy 10 - - - -
27/04:00am 19.4 NW 9 14 1005.2 - 0.6 - Partly cloudy 10 - - - -
27/03:30am 19.7 WNW 5 9 1005.6 - 0.2 - Partly cloudy 10 - - - -
27/03:00am 19.8 NNW 6 8 1005.2 - 0.2 - Cloudy 10 - - - -
27/02:30am 20.4 NNW 7 9 1004.9 - 0.2 - Partly cloudy 10 - - - -
27/02:00am 20.8 NNW 8 11 1005.1 - 0.2 - Partly cloudy 10 - - - -
27/01:30am 20.6 NNW 7 8 1005.5 - 0.2 - Partly cloudy 10 - - - -
27/01:00am 20.1 NNW 8 9 1005.8 - 0.2 - Partly cloudy 8 - - - -
27/12:57am 19.9 NNW 8 9 1006.0 - 0.2 - Partly cloudy 8 - - - -
27/12:46am 19.7 N 7 9 1005.5 - 0.2 - - 6 - - - -
27/12:30am 19.2 NNE 4 5 1006.1 - 0.2 - Partly cloudy 8 - - - -
27/12:00am 20.0 E 3 5 1006.9 - 0.2 Rain Cloudy 10 - - - -
 
Date/Time
EST
Temp

°C
Wind Pressure Rain
since 9am
mm
Weather Cloud Vis
km
Sea
Height
m
Swell
Dir
 
Speed
knots
Gust
knots
hPa Trend Height
m
Period
s
Dir
26/11:30pm 20.7 WNW 6 9 1007.4 - 0.2 - - 10 - - - -
26/11:00pm 21.6 NW 13 19 1007.9 - 0.2 - Partly cloudy 10 - - - -
26/10:30pm 21.5 NW 7 8 1007.7 - 0.0 - Cloudy 10 - - - -
26/10:00pm 22.6 NNW 7 9 1006.7 - 0.0 - Partly cloudy 10 - - - -
26/09:30pm 22.4 NW 5 7 1006.9 - 0.0 - Cloudy 10 - - - -
26/09:00pm 22.7 NNW 5 8 1006.8 - 0.0 - Mostly cloudy 10 - - - -
26/08:30pm 23.1 NNW 9 16 1007.0 - 0.0 - Partly cloudy 10 - - - -
26/08:00pm 23.0 NNW 11 15 1006.9 - 0.0 - Partly cloudy 10 - - - -
26/07:30pm 22.6 NNW 10 13 1006.7 - 0.0 - Partly cloudy 10 - - - -
26/07:00pm 22.1 NW 6 9 1007.6 - 0.0 - Cloudy 10 - - - -
26/06:30pm 21.6 WNW 5 6 1007.3 - 0.0 - Partly cloudy 10 - - - -
26/06:00pm 22.5 NNW 9 12 1007.1 - 0.0 - Mostly cloudy 10 - - - -

Other Formats:

Comma delimited format used in spreadsheet applications
http://www.bom.gov.au/fwo/IDN60701/IDN60701.94592.axf

JavaScript Object Notation format (JSON) in row-major order
http://www.bom.gov.au/fwo/IDN60701/IDN60701.94592.json